Time;durP1;ratioP1;P1;durP2;ratioP2;P2;SDS_P1;SDS_P2;PMS_P1;PMS_P2;Temp;Humidity;BMP_temperature;BMP_pressure;BME280_temperature;BME280_humidity;BME280_pressure;Samples;Min_cycle;Max_cycle;Signal;HPM_P1;HPM_P2
2022/03/02 00:00:47;;;;;;;14.97;13.60;;;;;;;0.77;59.13;99457.00;4123107;28;20261;-60
2022/03/02 00:02:49;;;;;;;15.13;13.73;;;;;;;0.77;59.15;99460.53;4120342;28;20651;-58
2022/03/02 00:04:50;;;;;;;15.80;14.10;;;;;;;0.74;59.33;99466.25;4137896;28;20283;-61
2022/03/02 00:06:52;;;;;;;16.50;15.00;;;;;;;0.71;59.43;99469.28;4124820;28;20321;-60
2022/03/02 00:08:54;;;;;;;15.17;13.23;;;;;;;0.67;59.85;99467.91;4125538;28;22469;-64
2022/03/02 00:10:55;;;;;;;15.80;14.43;;;;;;;0.63;59.90;99471.97;4121973;28;20199;-60
2022/03/02 00:12:57;;;;;;;16.03;14.43;;;;;;;0.65;60.11;99464.56;4124948;28;20206;-61
2022/03/02 00:14:59;;;;;;;15.37;13.77;;;;;;;0.62;60.08;99454.09;4120124;28;20735;-59
2022/03/02 00:17:01;;;;;;;16.40;14.90;;;;;;;0.60;60.02;99450.72;4122481;28;20253;-59
2022/03/02 00:19:03;;;;;;;18.57;16.60;;;;;;;0.57;60.32;99451.06;4125841;28;20226;-62
2022/03/02 00:21:05;;;;;;;23.33;15.77;;;;;;;0.54;60.17;99446.00;4123773;28;20205;-61
2022/03/02 00:23:07;;;;;;;19.17;15.53;;;;;;;0.50;60.67;99439.28;4108057;28;20680;-59
2022/03/02 00:25:09;;;;;;;17.57;15.13;;;;;;;0.51;60.60;99446.34;4119685;28;20242;-60
2022/03/02 00:27:10;;;;;;;16.33;14.97;;;;;;;0.50;60.37;99444.66;4120781;28;20756;-64
2022/03/02 00:29:13;;;;;;;17.77;16.10;;;;;;;0.47;60.47;99441.44;4122552;28;20214;-59
2022/03/02 00:31:14;;;;;;;18.27;16.50;;;;;;;0.46;60.49;99443.28;4120986;28;20296;-61
2022/03/02 00:33:16;;;;;;;21.90;16.60;;;;;;;0.41;60.37;99445.63;4137534;28;20267;-57
2022/03/02 00:35:18;;;;;;;16.87;15.23;;;;;;;0.42;60.63;99444.59;4121619;28;20229;-59
2022/03/02 00:37:20;;;;;;;19.10;17.30;;;;;;;0.39;60.70;99447.66;4123237;28;20252;-60
2022/03/02 00:39:21;;;;;;;16.83;15.23;;;;;;;0.40;60.88;99438.56;4119439;28;20226;-62
2022/03/02 00:41:23;;;;;;;17.40;15.63;;;;;;;0.38;61.00;99435.19;4124565;28;20269;-62
2022/03/02 00:43:25;;;;;;;18.03;15.83;;;;;;;0.42;60.96;99441.91;4134108;28;20692;-59
2022/03/02 00:45:27;;;;;;;16.00;14.50;;;;;;;0.41;61.16;99440.25;4120247;28;20254;-59
2022/03/02 00:47:32;;;;;;;18.67;15.87;;;;;;;0.41;60.95;99437.53;4123712;28;20222;-58
2022/03/02 00:49:34;;;;;;;15.87;12.93;;;;;;;0.36;61.04;99439.88;4123846;28;20684;-62
2022/03/02 00:51:36;;;;;;;15.23;13.73;;;;;;;0.33;60.99;99439.38;4132639;28;20957;-62
2022/03/02 00:53:38;;;;;;;14.83;13.40;;;;;;;0.34;61.25;99444.59;4101408;28;20267;-59
2022/03/02 00:55:40;;;;;;;13.63;12.33;;;;;;;0.30;60.94;99440.56;4121291;28;20307;-60
2022/03/02 00:57:42;;;;;;;15.90;14.30;;;;;;;0.34;60.69;99436.50;4135681;28;20233;-60
2022/03/02 00:59:43;;;;;;;16.33;13.53;;;;;;;0.32;60.72;99437.69;4127321;28;20381;-62
2022/03/02 01:01:45;;;;;;;13.87;12.57;;;;;;;0.35;60.76;99437.38;4137191;28;20292;-59
2022/03/02 01:03:47;;;;;;;17.17;13.40;;;;;;;0.28;60.60;99436.34;4111331;28;20211;-61
2022/03/02 01:05:48;;;;;;;14.87;13.47;;;;;;;0.25;60.83;99444.72;4123730;28;20232;-60
2022/03/02 01:07:50;;;;;;;14.33;12.83;;;;;;;0.23;61.14;99435.97;4121171;28;20214;-60
2022/03/02 01:09:52;;;;;;;19.07;13.07;;;;;;;0.22;61.16;99429.75;4138730;28;20243;-61
2022/03/02 01:11:54;;;;;;;13.80;12.47;;;;;;;0.25;61.27;99423.19;4111814;28;20294;-62
2022/03/02 01:13:55;;;;;;;13.73;12.43;;;;;;;0.22;61.24;99420.84;4119478;28;20242;-59
2022/03/02 01:15:57;;;;;;;22.97;13.17;;;;;;;0.18;61.10;99425.72;4128517;28;20232;-61
2022/03/02 01:17:59;;;;;;;14.03;12.63;;;;;;;0.18;60.98;99419.47;4126576;28;20206;-59
2022/03/02 01:20:03;;;;;;;14.23;12.90;;;;;;;0.13;61.25;99411.91;4123948;28;20293;-61
2022/03/02 01:22:06;;;;;;;16.77;13.67;;;;;;;0.10;61.44;99412.22;4126742;28;20230;-60
2022/03/02 01:24:08;;;;;;;15.33;13.97;;;;;;;0.09;60.90;99407.00;4128151;28;20237;-61
2022/03/02 01:26:10;;;;;;;16.17;14.67;;;;;;;0.02;61.04;99406.78;4122107;28;20253;-60
2022/03/02 01:28:11;;;;;;;14.30;13.00;;;;;;;0.01;61.20;99410.50;4137832;28;20305;-59
2022/03/02 01:30:13;;;;;;;15.00;13.70;;;;;;;-0.04;61.57;99402.06;4124591;28;20206;-60
2022/03/02 01:32:15;;;;;;;13.20;12.10;;;;;;;-0.06;61.59;99398.69;4128127;28;20210;-61
2022/03/02 01:34:17;;;;;;;14.87;13.57;;;;;;;-0.05;61.72;99404.94;4124637;28;20210;-61
2022/03/02 01:36:19;;;;;;;15.00;12.20;;;;;;;-0.06;61.66;99404.06;4122034;28;20380;-61
2022/03/02 01:38:21;;;;;;;14.97;12.93;;;;;;;-0.08;61.54;99390.97;4128440;28;20218;-61
2022/03/02 01:40:23;;;;;;;13.97;12.50;;;;;;;-0.13;61.89;99392.28;4123364;28;20250;-60
2022/03/02 01:42:24;;;;;;;14.10;12.70;;;;;;;-0.16;61.89;99374.81;4137745;28;20272;-60
2022/03/02 01:44:27;;;;;;;14.80;13.30;;;;;;;-0.13;61.71;99375.31;4127051;28;20297;-61
2022/03/02 01:46:30;;;;;;;13.37;12.07;;;;;;;-0.09;61.58;99381.22;4122987;28;20238;-62
2022/03/02 01:48:31;;;;;;;12.53;11.43;;;;;;;-0.09;61.55;99379.34;4121507;28;21105;-63
2022/03/02 01:50:33;;;;;;;13.27;11.97;;;;;;;-0.08;61.51;99376.50;4110084;28;20207;-59
2022/03/02 01:52:36;;;;;;;13.20;11.80;;;;;;;-0.08;61.74;99381.03;4126890;28;20253;-60
2022/03/02 01:54:37;;;;;;;14.30;13.00;;;;;;;-0.10;61.48;99380.38;4128006;28;20632;-62
2022/03/02 01:56:39;;;;;;;13.07;11.60;;;;;;;-0.09;61.46;99376.66;4126839;28;20209;-60
2022/03/02 01:58:41;;;;;;;13.03;11.83;;;;;;;-0.12;61.66;99377.00;4118701;28;20225;-61
2022/03/02 02:00:43;;;;;;;14.17;12.80;;;;;;;-0.13;61.81;99370.78;4122484;28;20658;-62
2022/03/02 02:02:45;;;;;;;13.70;12.30;;;;;;;-0.17;62.06;99371.25;4120468;28;20209;-61
2022/03/02 02:04:47;;;;;;;13.47;12.27;;;;;;;-0.21;62.20;99372.56;4136516;28;20210;-60
2022/03/02 02:06:49;;;;;;;12.77;11.57;;;;;;;-0.22;61.98;99375.44;4123099;28;20266;-59
2022/03/02 02:08:52;;;;;;;12.70;11.40;;;;;;;-0.23;62.29;99382.66;4121935;28;20217;-64
2022/03/02 02:10:57;;;;;;;12.83;11.53;;;;;;;-0.22;62.31;99375.44;4124659;28;20292;-58
2022/03/02 02:12:59;;;;;;;12.83;11.57;;;;;;;-0.29;62.47;99366.34;4118248;28;20232;-61
2022/03/02 02:15:02;;;;;;;15.10;13.70;;;;;;;-0.30;62.55;99357.41;4124601;28;20230;-60
2022/03/02 02:17:04;;;;;;;14.27;12.77;;;;;;;-0.33;62.57;99356.91;4112296;28;20239;-61
2022/03/02 02:19:06;;;;;;;12.40;11.20;;;;;;;-0.35;62.30;99364.28;4121908;28;20213;-61
2022/03/02 02:21:09;;;;;;;14.00;12.70;;;;;;;-0.38;62.64;99356.53;4119923;28;20288;-60
2022/03/02 02:23:11;;;;;;;13.13;11.90;;;;;;;-0.38;62.81;99359.22;4122363;28;20242;-62
2022/03/02 02:25:14;;;;;;;13.00;11.80;;;;;;;-0.44;62.66;99349.09;4138409;28;20602;-61
2022/03/02 02:27:20;;;;;;;15.33;13.73;;;;;;;-0.48;63.29;99353.13;4122827;28;20210;-60
2022/03/02 02:29:23;;;;;;;12.53;11.43;;;;;;;-0.51;63.30;99346.25;4125317;28;20245;-60
2022/03/02 02:31:25;;;;;;;11.97;10.90;;;;;;;-0.49;63.21;99340.72;4125034;28;20568;-61
2022/03/02 02:33:28;;;;;;;17.10;13.13;;;;;;;-0.55;63.33;99339.50;4107186;28;20261;-60
2022/03/02 02:35:29;;;;;;;14.17;12.67;;;;;;;-0.57;63.54;99337.94;4122968;28;20604;-61
2022/03/02 02:37:33;;;;;;;16.63;14.73;;;;;;;-0.59;63.31;99342.66;4121194;28;20202;-62
2022/03/02 02:39:37;;;;;;;15.37;13.30;;;;;;;-0.58;63.16;99333.59;4124292;28;20214;-62
2022/03/02 02:41:39;;;;;;;16.00;14.50;;;;;;;-0.60;62.97;99332.91;4126599;28;20613;-60
2022/03/02 02:43:42;;;;;;;18.23;14.80;;;;;;;-0.65;63.13;99327.16;4123064;28;20210;-60
2022/03/02 02:45:44;;;;;;;16.53;14.73;;;;;;;-0.68;63.14;99331.00;4126085;28;20234;-60
2022/03/02 02:47:47;;;;;;;13.50;12.10;;;;;;;-0.66;62.84;99331.72;4120356;28;20249;-59
2022/03/02 02:49:49;;;;;;;13.57;12.17;;;;;;;-0.70;63.07;99324.13;4125242;28;20269;-61
2022/03/02 02:51:53;;;;;;;14.47;12.57;;;;;;;-0.69;63.28;99323.13;4122474;28;20214;-62
2022/03/02 02:53:55;;;;;;;15.53;12.97;;;;;;;-0.67;62.78;99326.50;4126961;28;20233;-62
2022/03/02 02:55:57;;;;;;;15.70;12.73;;;;;;;-0.65;62.88;99319.13;4126639;28;20230;-62
2022/03/02 02:58:00;;;;;;;14.17;12.87;;;;;;;-0.65;62.67;99314.59;4122527;28;20206;-60
2022/03/02 03:00:02;;;;;;;13.30;12.10;;;;;;;-0.70;62.83;99310.69;4127665;28;20242;-63
2022/03/02 03:02:04;;;;;;;12.30;11.03;;;;;;;-0.71;62.78;99304.47;4123216;28;20302;-62
2022/03/02 03:04:06;;;;;;;13.07;11.23;;;;;;;-0.74;62.71;99309.34;4138362;28;20233;-62
2022/03/02 03:06:08;;;;;;;13.40;12.10;;;;;;;-0.76;62.79;99305.94;4122086;28;20253;-62
2022/03/02 03:08:11;;;;;;;13.10;11.90;;;;;;;-0.84;62.94;99295.16;4109122;28;20246;-64
2022/03/02 03:10:14;;;;;;;14.27;12.37;;;;;;;-0.88;63.12;99293.81;4138233;28;20227;-62
2022/03/02 03:12:16;;;;;;;13.17;11.97;;;;;;;-0.85;63.08;99285.44;4138401;28;20759;-63
2022/03/02 03:14:17;;;;;;;14.23;11.07;;;;;;;-0.86;63.00;99289.13;4125169;28;20244;-61
2022/03/02 03:16:19;;;;;;;13.33;10.23;;;;;;;-0.88;63.18;99286.59;4120918;28;20258;-61
2022/03/02 03:18:21;;;;;;;12.40;11.17;;;;;;;-0.62;62.61;99283.88;4125039;28;20779;-63
2022/03/02 03:20:26;;;;;;;12.00;10.90;;;;;;;-0.74;62.66;99277.91;4121085;28;20627;-62
2022/03/02 03:22:27;;;;;;;15.83;11.07;;;;;;;-0.72;62.49;99285.81;4134218;28;20241;-62
2022/03/02 03:24:29;;;;;;;13.73;12.37;;;;;;;-0.73;62.42;99289.53;4122144;28;20958;-60
2022/03/02 03:26:31;;;;;;;11.73;10.63;;;;;;;-0.76;62.49;99284.44;4122078;28;20629;-63
2022/03/02 03:28:32;;;;;;;13.43;12.13;;;;;;;-0.76;62.69;99289.81;4105325;28;20246;-60
2022/03/02 03:30:34;;;;;;;13.93;11.33;;;;;;;-0.80;62.81;99285.78;4117963;28;20252;-60
2022/03/02 03:32:36;;;;;;;12.30;11.30;;;;;;;-0.81;62.86;99276.06;4120547;28;20237;-59
2022/03/02 03:34:38;;;;;;;13.10;11.77;;;;;;;-0.83;62.89;99281.56;4137599;28;20285;-61
2022/03/02 03:36:41;;;;;;;12.60;10.83;;;;;;;-0.86;62.67;99281.06;4121586;28;20622;-60
2022/03/02 03:38:44;;;;;;;13.57;12.43;;;;;;;-0.86;62.90;99283.75;4119247;28;20288;-59
2022/03/02 03:40:49;;;;;;;12.70;11.47;;;;;;;-0.88;63.31;99285.75;4124836;28;20325;-61
2022/03/02 03:42:52;;;;;;;12.97;11.17;;;;;;;-0.91;63.29;99280.69;4125935;28;20217;-61
2022/03/02 03:44:53;;;;;;;12.33;11.33;;;;;;;-0.96;63.02;99273.13;4121078;28;20261;-60
2022/03/02 03:46:55;;;;;;;14.60;12.43;;;;;;;-0.97;62.85;99276.81;4123306;28;20218;-60
2022/03/02 03:48:57;;;;;;;12.37;11.27;;;;;;;-0.97;63.00;99287.53;4128462;28;20210;-61
2022/03/02 03:50:59;;;;;;;11.77;10.00;;;;;;;-0.98;63.17;99285.88;4126481;28;20203;-61
2022/03/02 03:53:01;;;;;;;13.67;12.43;;;;;;;-0.98;63.21;99287.69;4122610;28;20236;-61
2022/03/02 03:55:04;;;;;;;14.90;11.57;;;;;;;-0.99;63.09;99288.69;4125383;28;20232;-61
2022/03/02 03:57:06;;;;;;;12.17;11.03;;;;;;;-1.02;63.32;99286.34;4123997;28;20213;-60
2022/03/02 03:59:08;;;;;;;13.50;12.40;;;;;;;-1.09;63.58;99279.94;4107416;28;20202;-61
2022/03/02 04:01:10;;;;;;;13.87;12.60;;;;;;;-1.10;63.54;99286.28;4124402;28;20735;-62
2022/03/02 04:03:12;;;;;;;13.33;12.10;;;;;;;-1.22;63.91;99284.88;4120247;28;20261;-62
2022/03/02 04:05:14;;;;;;;12.83;11.63;;;;;;;-1.23;64.10;99285.84;4137378;28;20898;-61
2022/03/02 04:07:19;;;;;;;13.23;12.13;;;;;;;-1.24;64.04;99284.16;4118290;28;20210;-60
2022/03/02 04:09:21;;;;;;;14.60;13.10;;;;;;;-1.19;64.14;99288.09;4123643;28;20237;-61
2022/03/02 04:11:23;;;;;;;14.17;13.03;;;;;;;-1.21;64.20;99279.31;4122298;28;20218;-61
2022/03/02 04:13:24;;;;;;;13.20;11.90;;;;;;;-1.20;64.42;99274.81;4121521;28;20210;-60
2022/03/02 04:15:26;;;;;;;16.07;14.13;;;;;;;-1.18;64.13;99278.16;4124732;28;20312;-59
2022/03/02 04:17:27;;;;;;;15.70;11.43;;;;;;;-1.25;64.65;99272.59;4126403;28;20205;-61
2022/03/02 04:19:29;;;;;;;13.90;11.93;;;;;;;-1.24;64.61;99260.88;4121942;28;20206;-62
2022/03/02 04:21:32;;;;;;;12.27;11.17;;;;;;;-1.22;65.08;99266.09;4134261;28;20280;-59
2022/03/02 04:23:33;;;;;;;14.77;13.37;;;;;;;-1.24;64.78;99268.91;4124724;28;20202;-61
2022/03/02 04:25:36;;;;;;;14.00;12.60;;;;;;;-1.25;65.23;99271.75;4119677;28;20229;-58
2022/03/02 04:27:38;;;;;;;13.93;12.60;;;;;;;-1.28;65.46;99259.47;4135632;28;20241;-62
2022/03/02 04:29:42;;;;;;;11.70;10.50;;;;;;;-1.24;64.99;99257.31;4118783;28;20237;-61
2022/03/02 04:31:44;;;;;;;13.07;11.87;;;;;;;-1.25;64.86;99250.28;4135907;28;20229;-62
2022/03/02 04:33:48;;;;;;;12.00;10.90;;;;;;;-1.29;64.96;99244.38;4133747;28;20612;-61
2022/03/02 04:35:50;;;;;;;17.73;10.93;;;;;;;-1.24;64.62;99247.44;4124615;28;20269;-61
2022/03/02 04:37:53;;;;;;;15.53;10.47;;;;;;;-1.21;64.88;99252.47;4122274;28;20210;-58
2022/03/02 04:39:55;;;;;;;13.77;12.47;;;;;;;-1.17;64.37;99259.22;4124342;28;20241;-59
2022/03/02 04:41:56;;;;;;;12.60;10.47;;;;;;;-1.14;64.48;99258.06;4121891;28;20959;-60
2022/03/02 04:43:58;;;;;;;14.00;11.40;;;;;;;-1.14;64.40;99260.75;4122061;28;20230;-58
2022/03/02 04:46:00;;;;;;;11.53;10.47;;;;;;;-1.15;64.95;99245.66;4121153;28;20273;-59
2022/03/02 04:48:02;;;;;;;13.80;11.03;;;;;;;-1.21;64.62;99243.59;4126158;28;20631;-58
2022/03/02 04:50:06;;;;;;;12.77;11.50;;;;;;;-1.19;65.09;99246.97;4125893;28;20256;-60
2022/03/02 04:52:07;;;;;;;13.23;12.07;;;;;;;-1.23;64.59;99242.91;4120073;28;20230;-61
2022/03/02 04:55:05;;;;;;;13.70;12.47;;;;;;;-1.22;64.89;99244.59;4120087;28;20622;-58
2022/03/02 04:56:31;;;;;;;12.33;11.03;;;;;;;-1.21;64.31;99247.13;4121594;28;20271;-59
2022/03/02 04:58:32;;;;;;;11.63;10.53;;;;;;;-1.21;64.71;99240.91;4120410;28;20290;-61
2022/03/02 05:00:35;;;;;;;12.83;11.63;;;;;;;-1.18;64.97;99241.44;4124407;28;20252;-62
2022/03/02 05:02:38;;;;;;;12.17;11.13;;;;;;;-1.21;64.84;99243.59;4125166;28;20770;-60
2022/03/02 05:04:40;;;;;;;11.87;10.80;;;;;;;-1.17;64.43;99250.31;4124879;28;20292;-63
2022/03/02 05:06:41;;;;;;;12.03;10.80;;;;;;;-1.14;64.66;99252.72;4135789;28;20296;-59
2022/03/02 05:08:43;;;;;;;13.13;10.97;;;;;;;-1.10;64.81;99248.69;4119293;28;20640;-61
2022/03/02 05:10:45;;;;;;;12.53;11.33;;;;;;;-1.07;64.74;99248.38;4136287;28;20232;-61
2022/03/02 05:12:47;;;;;;;12.00;10.90;;;;;;;-1.04;64.64;99258.78;4118581;28;20237;-60
2022/03/02 05:14:50;;;;;;;13.23;11.73;;;;;;;-1.02;64.95;99251.44;4135994;28;20300;-62
2022/03/02 05:16:52;;;;;;;12.80;11.60;;;;;;;-1.05;64.64;99247.22;4125343;28;20210;-61
2022/03/02 05:18:53;;;;;;;12.47;11.23;;;;;;;-1.04;64.86;99248.06;4124230;28;20252;-61
2022/03/02 05:20:55;;;;;;;13.50;12.13;;;;;;;-1.05;65.38;99243.69;4120971;28;20317;-61
2022/03/02 05:22:56;;;;;;;12.37;11.27;;;;;;;-1.03;65.13;99244.34;4119789;28;20210;-60
2022/03/02 05:24:58;;;;;;;13.53;12.13;;;;;;;-0.98;65.17;99242.03;4108098;28;20250;-62
2022/03/02 05:27:00;;;;;;;13.27;12.03;;;;;;;-1.00;65.10;99242.19;4122566;28;20409;-62
2022/03/02 05:29:02;;;;;;;12.63;11.33;;;;;;;-0.99;64.87;99240.38;4119288;28;20237;-63
2022/03/02 05:31:04;;;;;;;13.57;12.17;;;;;;;-1.01;65.03;99247.75;4121564;28;20244;-62
2022/03/02 05:33:06;;;;;;;11.93;10.80;;;;;;;-0.98;64.77;99239.34;4119350;28;20261;-62
2022/03/02 05:35:09;;;;;;;13.03;11.73;;;;;;;-0.98;64.95;99239.34;4123472;28;20265;-62
2022/03/02 05:37:10;;;;;;;15.83;12.93;;;;;;;-0.99;64.68;99245.75;4124979;28;20680;-61
2022/03/02 05:39:13;;;;;;;11.50;10.50;;;;;;;-0.97;65.13;99244.59;4124605;28;20217;-61
2022/03/02 05:41:15;;;;;;;15.97;12.07;;;;;;;-0.98;64.93;99242.03;4126543;28;20257;-63
2022/03/02 05:43:16;;;;;;;13.70;11.97;;;;;;;-0.99;64.77;99251.97;4122392;28;20256;-62
2022/03/02 05:45:18;;;;;;;12.50;11.30;;;;;;;-0.99;65.17;99245.75;4121706;28;20226;-61
2022/03/02 05:47:20;;;;;;;11.77;10.73;;;;;;;-1.00;65.20;99249.44;4135075;28;20226;-61
2022/03/02 05:49:21;;;;;;;12.00;11.00;;;;;;;-1.00;65.07;99244.06;4141640;28;20721;-59
2022/03/02 05:51:23;;;;;;;12.30;10.30;;;;;;;-1.02;65.04;99251.44;4124448;28;20203;-61
2022/03/02 05:53:25;;;;;;;13.97;11.77;;;;;;;-1.02;65.31;99246.06;4135986;28;20209;-62
2022/03/02 05:55:27;;;;;;;15.33;11.10;;;;;;;-1.03;65.28;99241.69;4121187;28;20222;-61
2022/03/02 05:57:29;;;;;;;11.63;10.63;;;;;;;-1.02;65.36;99240.69;4123164;28;20210;-61
2022/03/02 05:59:30;;;;;;;12.33;11.13;;;;;;;-1.03;65.56;99244.34;4138373;28;20305;-60
2022/03/02 06:01:33;;;;;;;12.93;11.53;;;;;;;-1.03;65.36;99239.00;4123604;28;20704;-61
2022/03/02 06:03:35;;;;;;;17.50;11.63;;;;;;;-1.02;65.54;99240.69;4126667;28;20321;-60
2022/03/02 06:05:37;;;;;;;12.00;10.93;;;;;;;-1.03;65.59;99244.34;4126823;28;20782;-61
2022/03/02 06:07:38;;;;;;;19.00;13.17;;;;;;;-1.01;65.57;99242.38;4136258;28;20210;-63
2022/03/02 06:09:41;;;;;;;12.23;11.20;;;;;;;-1.01;65.75;99242.38;4121901;28;20217;-62
2022/03/02 06:11:43;;;;;;;16.20;10.80;;;;;;;-1.00;65.57;99241.38;4122624;28;20238;-62
2022/03/02 06:13:45;;;;;;;12.17;11.13;;;;;;;-0.99;65.44;99251.09;4139489;28;20220;-60
2022/03/02 06:15:47;;;;;;;13.07;11.77;;;;;;;-0.96;65.48;99250.78;4123101;28;20226;-62
2022/03/02 06:17:50;;;;;;;16.93;12.50;;;;;;;-0.93;65.49;99255.84;4126513;28;20206;-61
2022/03/02 06:19:52;;;;;;;13.57;12.30;;;;;;;-0.90;65.49;99251.00;4123749;28;20723;-61
2022/03/02 06:21:54;;;;;;;12.30;11.13;;;;;;;-0.86;65.63;99260.44;4125395;28;20276;-62
2022/03/02 06:23:56;;;;;;;12.73;11.53;;;;;;;-0.80;65.42;99262.44;4127665;28;20210;-61
2022/03/02 06:25:58;;;;;;;16.73;13.57;;;;;;;-0.83;65.88;99257.41;4111916;28;20229;-60
2022/03/02 06:28:00;;;;;;;16.27;11.80;;;;;;;-0.80;65.91;99261.63;4139044;28;20291;-61
2022/03/02 06:30:02;;;;;;;16.27;12.67;;;;;;;-0.86;66.52;99246.13;4126304;28;20351;-60
2022/03/02 06:32:05;;;;;;;15.47;13.93;;;;;;;-0.85;66.22;99259.41;4123365;28;20244;-59
2022/03/02 06:34:07;;;;;;;14.90;13.60;;;;;;;-0.79;65.93;99258.78;4135694;28;20699;-60
2022/03/02 06:36:08;;;;;;;14.17;12.47;;;;;;;-0.73;65.76;99262.66;4121348;28;20322;-58
2022/03/02 06:38:10;;;;;;;14.50;13.10;;;;;;;-0.67;65.34;99259.34;4122904;28;20238;-60
2022/03/02 06:40:13;;;;;;;13.63;12.13;;;;;;;-0.66;65.62;99263.69;4119994;28;20246;-61
2022/03/02 06:42:17;;;;;;;27.37;12.87;;;;;;;-0.67;65.62;99260.16;4138401;28;20654;-62
2022/03/02 06:44:34;;;;;;;12.13;10.77;;;;;;;-0.65;65.48;99265.38;4121723;28;20654;-60
2022/03/02 06:46:50;;;;;;;15.07;12.20;;;;;;;-0.60;65.42;99263.06;4123121;28;20293;-60
2022/03/02 06:49:03;;;;;;;17.67;14.07;;;;;;;-0.53;65.16;99264.94;4123068;28;20217;-61
2022/03/02 06:51:06;;;;;;;16.70;12.70;;;;;;;-0.44;64.97;99268.47;4121512;28;20202;-60
2022/03/02 06:53:11;;;;;;;16.33;14.90;;;;;;;-0.49;64.92;99268.16;4123593;28;20754;-61
2022/03/02 06:55:18;;;;;;;14.57;13.17;;;;;;;-0.46;64.71;99265.13;4136177;28;20233;-58
2022/03/02 06:57:27;;;;;;;15.70;14.30;;;;;;;-0.43;64.91;99267.47;4110589;28;20699;-63
2022/03/02 06:59:39;;;;;;;19.67;14.60;;;;;;;-0.37;64.66;99274.88;4107949;28;20255;-60
2022/03/02 07:01:43;;;;;;;17.17;15.67;;;;;;;-0.33;64.78;99277.13;4109682;28;20694;-61
2022/03/02 07:03:49;;;;;;;17.30;15.70;;;;;;;-0.27;65.03;99275.59;4126127;28;20242;-62
2022/03/02 07:05:51;;;;;;;17.33;15.50;;;;;;;-0.18;65.12;99280.00;4125215;28;20308;-61
2022/03/02 07:07:53;;;;;;;17.10;15.43;;;;;;;-0.16;64.99;99272.63;4139370;28;20643;-60
2022/03/02 07:09:55;;;;;;;15.83;14.23;;;;;;;-0.14;64.84;99275.97;4121821;28;20680;-60
2022/03/02 07:11:59;;;;;;;16.97;14.87;;;;;;;-0.13;64.93;99272.28;4119624;28;20214;-61
2022/03/02 07:14:00;;;;;;;25.17;14.03;;;;;;;-0.08;64.83;99275.31;4122606;28;20202;-59
2022/03/02 07:16:06;;;;;;;15.17;13.87;;;;;;;-0.13;64.75;99266.91;4121593;28;20253;-60
2022/03/02 07:18:08;;;;;;;15.20;12.83;;;;;;;-0.13;64.67;99268.59;4126248;28;20260;-60
2022/03/02 07:20:11;;;;;;;15.53;13.90;;;;;;;-0.08;64.59;99269.94;4137482;28;20202;-60
2022/03/02 07:22:16;;;;;;;13.47;12.17;;;;;;;-0.04;64.29;99262.19;4127390;28;20663;-60
2022/03/02 07:24:19;;;;;;;14.60;13.07;;;;;;;-0.01;64.09;99261.88;4136488;28;20213;-60
2022/03/02 07:26:22;;;;;;;15.47;12.53;;;;;;;0.04;64.01;99259.56;4123120;28;20653;-60
2022/03/02 07:28:26;;;;;;;14.53;13.10;;;;;;;0.07;63.74;99253.81;4137127;28;20209;-62
2022/03/02 07:30:28;;;;;;;16.77;13.20;;;;;;;0.15;63.64;99251.13;4126245;28;20206;-59
2022/03/02 07:32:35;;;;;;;16.27;12.93;;;;;;;0.22;63.56;99252.16;4125814;28;20206;-58
2022/03/02 07:34:41;;;;;;;14.00;12.80;;;;;;;0.30;63.81;99257.56;4121097;28;20253;-59
2022/03/02 07:36:43;;;;;;;12.93;11.83;;;;;;;0.33;63.51;99256.34;4116772;28;20225;-60
2022/03/02 07:38:44;;;;;;;14.57;13.33;;;;;;;0.36;63.40;99264.94;4121050;28;20214;-61
2022/03/02 07:40:46;;;;;;;17.10;12.70;;;;;;;0.40;63.34;99260.91;4119814;28;20210;-57
2022/03/02 07:42:49;;;;;;;14.67;13.13;;;;;;;0.49;63.37;99262.59;4118699;28;20258;-61
2022/03/02 07:44:51;;;;;;;14.73;13.10;;;;;;;0.59;63.31;99260.56;4135054;28;20668;-60
2022/03/02 07:46:53;;;;;;;13.40;11.87;;;;;;;0.64;63.43;99257.38;4135114;28;20227;-60
2022/03/02 07:48:56;;;;;;;13.17;11.87;;;;;;;0.65;63.35;99257.22;4119299;28;20217;-58
2022/03/02 07:50:59;;;;;;;13.57;12.30;;;;;;;0.76;63.25;99259.56;4126960;28;20210;-59
2022/03/02 07:53:01;;;;;;;13.30;12.00;;;;;;;0.65;62.74;99253.66;4127301;28;20681;-59
2022/03/02 07:55:09;;;;;;;14.07;12.43;;;;;;;0.62;63.13;99254.03;4127855;28;20225;-57
2022/03/02 07:57:15;;;;;;;14.60;13.13;;;;;;;0.78;62.87;99254.00;4120795;28;20915;-60
2022/03/02 07:59:23;;;;;;;14.77;13.37;;;;;;;0.83;62.92;99249.78;4124687;28;20277;-60
2022/03/02 08:01:27;;;;;;;23.77;13.17;;;;;;;0.91;62.61;99249.78;4119645;28;20210;-59
2022/03/02 08:03:30;;;;;;;13.30;12.20;;;;;;;1.02;62.91;99256.66;4119379;28;20229;-61
2022/03/02 08:05:36;;;;;;;13.07;11.97;;;;;;;1.08;62.42;99261.34;4125861;28;20229;-60
2022/03/02 08:07:38;;;;;;;13.27;12.07;;;;;;;1.20;62.04;99260.81;4125635;28;20668;-62
2022/03/02 08:09:40;;;;;;;13.07;11.80;;;;;;;1.13;62.49;99251.72;4119508;28;20214;-61
2022/03/02 08:11:45;;;;;;;14.20;13.00;;;;;;;1.05;62.57;99251.75;4119978;28;20285;-61
2022/03/02 08:13:47;;;;;;;13.20;12.10;;;;;;;1.25;61.91;99255.75;4106834;28;20338;-61
2022/03/02 08:15:49;;;;;;;14.05;12.80;;;;;;;1.37;62.07;99248.97;4120417;28;20268;-60
2022/03/02 08:17:52;;;;;;;17.43;13.17;;;;;;;1.45;62.22;99253.47;4122251;28;20224;-61
2022/03/02 08:20:13;;;;;;;15.35;14.07;;;;;;;1.55;61.99;99259.50;4125232;28;20502;-59
2022/03/02 08:22:20;;;;;;;13.75;12.35;;;;;;;1.69;61.74;99254.19;4121969;28;20651;-59
2022/03/02 08:24:24;;;;;;;14.93;12.48;;;;;;;1.68;61.44;99249.81;4121169;28;20207;-59
2022/03/02 08:38:45;;;;;;;15.63;13.02;;;;;;;1.89;61.35;99231.16;4191853;27;20577;-46
2022/03/02 08:40:47;;;;;;;14.65;13.23;;;;;;;1.93;60.56;99235.19;4151619;28;20703;-47
2022/03/02 08:42:50;;;;;;;15.90;12.25;;;;;;;2.07;60.41;99229.03;4139571;28;20206;-48
2022/03/02 08:44:54;;;;;;;13.80;12.35;;;;;;;2.24;60.08;99241.41;4186605;28;20211;-47
2022/03/02 08:46:58;;;;;;;16.00;14.52;;;;;;;2.39;60.13;99228.78;4156303;28;20227;-48
2022/03/02 08:49:00;;;;;;;13.20;12.05;;;;;;;2.39;59.72;99233.31;4140488;28;20288;-48
2022/03/02 08:51:03;;;;;;;14.82;12.88;;;;;;;2.44;60.04;99225.53;4173852;28;20200;-47
2022/03/02 08:53:05;;;;;;;16.88;14.82;;;;;;;2.47;59.92;99234.13;4189330;28;20238;-46
2022/03/02 08:55:10;;;;;;;15.55;14.02;;;;;;;2.57;59.49;99232.00;4158237;28;20477;-47
2022/03/02 08:57:12;;;;;;;15.10;13.73;;;;;;;2.69;59.35;99235.97;4169919;28;20302;-47
2022/03/02 08:59:17;;;;;;;15.13;13.82;;;;;;;2.74;58.86;99232.72;4148551;28;20209;-46
2022/03/02 09:01:19;;;;;;;14.40;13.07;;;;;;;2.77;59.18;99227.78;4181798;28;20210;-47
2022/03/02 09:03:21;;;;;;;13.15;11.88;;;;;;;2.97;59.41;99223.53;4169977;28;20235;-48
2022/03/02 09:05:26;;;;;;;16.35;14.98;;;;;;;3.08;58.43;99236.56;4157301;28;20209;-47
2022/03/02 09:07:28;;;;;;;14.70;13.48;;;;;;;3.29;59.06;99223.16;4149014;28;20232;-47
2022/03/02 09:09:30;;;;;;;13.48;12.27;;;;;;;3.50;58.33;99231.38;4171513;28;20582;-47
2022/03/02 09:11:33;;;;;;;14.38;12.98;;;;;;;3.71;57.61;99234.13;4172894;28;20208;-47
2022/03/02 09:13:38;;;;;;;14.93;13.73;;;;;;;3.79;57.08;99230.47;4157720;28;20220;-49
2022/03/02 09:15:41;;;;;;;12.40;11.43;;;;;;;3.74;57.15;99236.44;4185904;28;20278;-48
2022/03/02 09:17:43;;;;;;;13.45;12.25;;;;;;;3.81;57.14;99240.06;4156534;28;20260;-49
2022/03/02 09:19:45;;;;;;;12.38;11.32;;;;;;;3.86;57.17;99242.22;4175207;28;20196;-48
2022/03/02 09:21:56;;;;;;;13.32;12.25;;;;;;;3.79;57.46;99242.13;4157834;28;20207;-50
2022/03/02 09:23:59;;;;;;;13.50;12.10;;;;;;;3.85;57.74;99246.78;4169115;28;20557;-49
2022/03/02 09:26:06;;;;;;;14.07;12.60;;;;;;;3.98;56.98;99248.81;4185504;28;20210;-48
2022/03/02 09:28:10;;;;;;;14.10;12.40;;;;;;;3.98;57.10;99246.09;4169125;28;20281;-48
2022/03/02 09:30:12;;;;;;;14.60;13.05;;;;;;;4.02;57.40;99242.00;4171154;28;20587;-49
2022/03/02 09:32:15;;;;;;;15.68;14.10;;;;;;;4.19;57.69;99238.84;4172955;28;20274;-48
2022/03/02 09:34:20;;;;;;;12.65;11.45;;;;;;;4.22;56.65;99238.47;4170613;28;20601;-48
2022/03/02 09:36:24;;;;;;;13.63;12.43;;;;;;;4.13;56.62;99234.19;4171634;28;20796;-48
2022/03/02 09:38:27;;;;;;;11.63;10.68;;;;;;;4.35;56.35;99233.16;4180880;28;20224;-48